sensor_id;sensor_type;location;lat;lon;timestamp;pressure;altitude;pressure_sealevel;temperature;humidity
43741;BME280;29352;48.708;9.290;2024-02-26T00:02:23;95948.66;;;4.37;54.28
43741;BME280;29352;48.708;9.290;2024-02-26T00:04:49;95954.00;;;4.00;54.72
43741;BME280;29352;48.708;9.290;2024-02-26T00:07:15;95960.88;;;4.49;53.90
43741;BME280;29352;48.708;9.290;2024-02-26T00:09:41;95957.59;;;4.36;53.98
43741;BME280;29352;48.708;9.290;2024-02-26T00:12:07;95957.59;;;4.36;54.46
43741;BME280;29352;48.708;9.290;2024-02-26T00:14:33;95943.72;;;4.10;55.22
43741;BME280;29352;48.708;9.290;2024-02-26T00:17:00;95940.78;;;4.48;54.56
43741;BME280;29352;48.708;9.290;2024-02-26T00:19:25;95937.72;;;3.85;55.69
43741;BME280;29352;48.708;9.290;2024-02-26T00:21:51;95939.56;;;3.66;55.63
43741;BME280;29352;48.708;9.290;2024-02-26T00:24:19;95944.03;;;3.84;55.34
43741;BME280;29352;48.708;9.290;2024-02-26T00:26:44;95941.81;;;3.99;55.26
43741;BME280;29352;48.708;9.290;2024-02-26T00:29:10;95944.69;;;3.61;57.13
43741;BME280;29352;48.708;9.290;2024-02-26T00:31:36;95938.91;;;3.70;56.98
43741;BME280;29352;48.708;9.290;2024-02-26T00:34:03;95936.44;;;3.75;56.86
43741;BME280;29352;48.708;9.290;2024-02-26T00:36:28;95940.22;;;3.79;56.18
43741;BME280;29352;48.708;9.290;2024-02-26T00:38:54;95941.53;;;3.70;56.17
43741;BME280;29352;48.708;9.290;2024-02-26T00:41:20;95930.41;;;3.87;55.85
43741;BME280;29352;48.708;9.290;2024-02-26T00:43:46;95932.38;;;3.73;56.56
43741;BME280;29352;48.708;9.290;2024-02-26T00:46:12;95936.13;;;3.84;56.47
43741;BME280;29352;48.708;9.290;2024-02-26T00:48:38;95926.94;;;3.68;56.67
43741;BME280;29352;48.708;9.290;2024-02-26T00:51:04;95932.16;;;3.56;56.63
43741;BME280;29352;48.708;9.290;2024-02-26T00:53:31;95928.00;;;3.67;56.99
43741;BME280;29352;48.708;9.290;2024-02-26T00:55:57;95930.25;;;3.45;56.88
43741;BME280;29352;48.708;9.290;2024-02-26T00:58:24;95931.28;;;3.19;57.76
43741;BME280;29352;48.708;9.290;2024-02-26T01:00:50;95932.72;;;3.40;57.73
43741;BME280;29352;48.708;9.290;2024-02-26T01:03:19;95915.75;;;3.72;57.23
43741;BME280;29352;48.708;9.290;2024-02-26T01:05:45;95916.72;;;2.91;59.67
43741;BME280;29352;48.708;9.290;2024-02-26T01:08:10;95916.59;;;3.04;60.37
43741;BME280;29352;48.708;9.290;2024-02-26T01:10:36;95922.38;;;3.20;58.81
43741;BME280;29352;48.708;9.290;2024-02-26T01:13:02;95922.66;;;2.87;58.91
43741;BME280;29352;48.708;9.290;2024-02-26T01:15:27;95922.63;;;3.37;59.15
43741;BME280;29352;48.708;9.290;2024-02-26T01:17:53;95902.09;;;3.20;59.47
43741;BME280;29352;48.708;9.290;2024-02-26T01:20:19;95920.44;;;2.58;59.65
43741;BME280;29352;48.708;9.290;2024-02-26T01:22:45;95925.28;;;2.87;59.94
43741;BME280;29352;48.708;9.290;2024-02-26T01:25:12;95921.56;;;2.94;59.24
43741;BME280;29352;48.708;9.290;2024-02-26T01:27:38;95924.69;;;3.09;58.65
43741;BME280;29352;48.708;9.290;2024-02-26T01:30:07;95930.25;;;2.45;60.24
43741;BME280;29352;48.708;9.290;2024-02-26T01:32:33;95921.28;;;2.52;60.27
43741;BME280;29352;48.708;9.290;2024-02-26T01:34:58;95919.72;;;2.45;60.71
43741;BME280;29352;48.708;9.290;2024-02-26T01:37:24;95908.66;;;3.11;59.54
43741;BME280;29352;48.708;9.290;2024-02-26T01:39:50;95936.47;;;2.50;61.10
43741;BME280;29352;48.708;9.290;2024-02-26T01:42:15;95937.69;;;2.54;60.46
43741;BME280;29352;48.708;9.290;2024-02-26T01:44:41;95944.09;;;2.65;60.59
43741;BME280;29352;48.708;9.290;2024-02-26T01:47:11;95952.34;;;2.44;60.65
43741;BME280;29352;48.708;9.290;2024-02-26T01:49:38;95951.38;;;2.63;59.38
43741;BME280;29352;48.708;9.290;2024-02-26T01:52:06;95945.31;;;2.88;58.75
43741;BME280;29352;48.708;9.290;2024-02-26T01:54:37;95953.69;;;2.78;59.07
43741;BME280;29352;48.708;9.290;2024-02-26T01:57:05;95957.59;;;3.00;58.54
43741;BME280;29352;48.708;9.290;2024-02-26T01:59:34;95956.84;;;3.18;58.52
43741;BME280;29352;48.708;9.290;2024-02-26T02:02:01;95951.09;;;3.03;58.96
43741;BME280;29352;48.708;9.290;2024-02-26T02:04:30;95954.81;;;3.20;58.25
43741;BME280;29352;48.708;9.290;2024-02-26T02:06:58;95961.38;;;3.36;58.35
43741;BME280;29352;48.708;9.290;2024-02-26T02:09:26;95965.69;;;3.30;58.09
43741;BME280;29352;48.708;9.290;2024-02-26T02:11:53;95963.31;;;3.66;57.65
43741;BME280;29352;48.708;9.290;2024-02-26T02:14:19;95961.00;;;3.32;58.51
43741;BME280;29352;48.708;9.290;2024-02-26T02:16:45;95966.69;;;3.73;57.92
43741;BME280;29352;48.708;9.290;2024-02-26T02:19:12;95967.06;;;3.58;57.83
43741;BME280;29352;48.708;9.290;2024-02-26T02:21:37;95962.34;;;3.42;57.78
43741;BME280;29352;48.708;9.290;2024-02-26T02:24:03;95968.84;;;2.57;59.67
43741;BME280;29352;48.708;9.290;2024-02-26T02:26:28;95966.53;;;2.68;59.65
43741;BME280;29352;48.708;9.290;2024-02-26T02:28:54;95970.16;;;2.98;58.79
43741;BME280;29352;48.708;9.290;2024-02-26T02:31:19;95977.50;;;2.96;59.32
43741;BME280;29352;48.708;9.290;2024-02-26T02:33:45;95979.53;;;2.94;59.33
43741;BME280;29352;48.708;9.290;2024-02-26T02:36:11;95984.94;;;3.06;58.63
43741;BME280;29352;48.708;9.290;2024-02-26T02:38:37;95971.91;;;2.54;60.06
43741;BME280;29352;48.708;9.290;2024-02-26T02:41:03;95960.84;;;2.71;59.09
43741;BME280;29352;48.708;9.290;2024-02-26T02:43:29;95958.81;;;3.23;58.11
43741;BME280;29352;48.708;9.290;2024-02-26T02:45:55;95959.69;;;3.42;57.64
43741;BME280;29352;48.708;9.290;2024-02-26T02:48:21;95961.53;;;3.16;57.88
43741;BME280;29352;48.708;9.290;2024-02-26T02:50:46;95965.09;;;3.28;58.26
43741;BME280;29352;48.708;9.290;2024-02-26T02:53:12;95970.44;;;3.15;59.22
43741;BME280;29352;48.708;9.290;2024-02-26T02:55:37;95966.34;;;3.19;57.92
43741;BME280;29352;48.708;9.290;2024-02-26T02:58:03;95966.94;;;3.21;58.08
43741;BME280;29352;48.708;9.290;2024-02-26T03:00:29;95982.44;;;3.11;58.56
43741;BME280;29352;48.708;9.290;2024-02-26T03:02:54;95970.88;;;3.12;58.72
43741;BME280;29352;48.708;9.290;2024-02-26T03:05:20;95957.13;;;2.85;58.14
43741;BME280;29352;48.708;9.290;2024-02-26T03:07:45;95963.56;;;2.89;57.29
43741;BME280;29352;48.708;9.290;2024-02-26T03:10:11;95967.53;;;2.98;58.25
43741;BME280;29352;48.708;9.290;2024-02-26T03:12:36;95954.78;;;3.27;58.34
43741;BME280;29352;48.708;9.290;2024-02-26T03:15:02;95958.53;;;3.38;56.43
43741;BME280;29352;48.708;9.290;2024-02-26T03:17:28;95955.75;;;3.88;55.50
43741;BME280;29352;48.708;9.290;2024-02-26T03:19:54;95966.59;;;2.61;58.13
43741;BME280;29352;48.708;9.290;2024-02-26T03:22:20;95966.44;;;3.38;57.16
43741;BME280;29352;48.708;9.290;2024-02-26T03:24:46;95977.91;;;2.68;59.61
43741;BME280;29352;48.708;9.290;2024-02-26T03:27:12;95974.66;;;3.48;58.29
43741;BME280;29352;48.708;9.290;2024-02-26T03:29:38;95986.19;;;2.40;59.87
43741;BME280;29352;48.708;9.290;2024-02-26T03:32:05;95962.28;;;3.23;58.10
43741;BME280;29352;48.708;9.290;2024-02-26T03:34:32;95965.81;;;3.11;59.10
43741;BME280;29352;48.708;9.290;2024-02-26T03:37:01;95963.09;;;3.49;57.10
43741;BME280;29352;48.708;9.290;2024-02-26T03:39:27;95952.47;;;3.55;56.92
43741;BME280;29352;48.708;9.290;2024-02-26T03:41:52;95942.97;;;3.04;57.77
43741;BME280;29352;48.708;9.290;2024-02-26T03:44:18;95935.84;;;3.05;57.19
43741;BME280;29352;48.708;9.290;2024-02-26T03:46:43;95938.84;;;2.58;58.81
43741;BME280;29352;48.708;9.290;2024-02-26T03:49:09;95940.66;;;2.90;57.83
43741;BME280;29352;48.708;9.290;2024-02-26T03:51:34;95932.91;;;3.20;58.43
43741;BME280;29352;48.708;9.290;2024-02-26T03:54:00;95936.91;;;3.22;60.56
43741;BME280;29352;48.708;9.290;2024-02-26T03:56:26;95944.63;;;2.74;61.62
43741;BME280;29352;48.708;9.290;2024-02-26T03:58:53;95957.59;;;2.75;61.53
43741;BME280;29352;48.708;9.290;2024-02-26T04:01:19;95947.44;;;3.04;59.45
43741;BME280;29352;48.708;9.290;2024-02-26T04:03:45;95942.41;;;3.46;58.02
43741;BME280;29352;48.708;9.290;2024-02-26T04:06:11;95931.06;;;3.20;59.14
43741;BME280;29352;48.708;9.290;2024-02-26T04:08:40;95920.97;;;3.17;59.86
43741;BME280;29352;48.708;9.290;2024-02-26T04:11:06;95919.47;;;3.28;59.79
43741;BME280;29352;48.708;9.290;2024-02-26T04:13:36;95912.28;;;2.60;60.70
43741;BME280;29352;48.708;9.290;2024-02-26T04:16:05;95913.34;;;3.52;58.18
43741;BME280;29352;48.708;9.290;2024-02-26T04:18:32;95936.41;;;2.25;61.24
43741;BME280;29352;48.708;9.290;2024-02-26T04:20:58;95928.38;;;2.77;59.96
43741;BME280;29352;48.708;9.290;2024-02-26T04:23:24;95928.41;;;3.27;58.76
43741;BME280;29352;48.708;9.290;2024-02-26T04:25:50;95944.41;;;2.75;59.89
43741;BME280;29352;48.708;9.290;2024-02-26T04:28:15;95956.66;;;2.88;58.95
43741;BME280;29352;48.708;9.290;2024-02-26T04:30:41;95967.13;;;1.93;61.17
43741;BME280;29352;48.708;9.290;2024-02-26T04:33:07;95960.97;;;1.41;62.02
43741;BME280;29352;48.708;9.290;2024-02-26T04:35:33;95967.78;;;1.88;61.54
43741;BME280;29352;48.708;9.290;2024-02-26T04:38:00;95964.97;;;1.57;62.27
43741;BME280;29352;48.708;9.290;2024-02-26T04:40:26;95964.19;;;1.50;61.91
43741;BME280;29352;48.708;9.290;2024-02-26T04:42:52;95962.50;;;1.88;61.21
43741;BME280;29352;48.708;9.290;2024-02-26T04:45:17;95963.78;;;1.53;61.99
43741;BME280;29352;48.708;9.290;2024-02-26T04:47:43;95968.56;;;1.76;61.94
43741;BME280;29352;48.708;9.290;2024-02-26T04:50:08;95958.47;;;1.86;61.10
43741;BME280;29352;48.708;9.290;2024-02-26T04:52:34;95954.69;;;2.52;59.63
43741;BME280;29352;48.708;9.290;2024-02-26T04:55:00;95959.69;;;2.60;58.82
43741;BME280;29352;48.708;9.290;2024-02-26T04:57:26;95942.22;;;2.72;59.08
43741;BME280;29352;48.708;9.290;2024-02-26T04:59:52;95933.94;;;3.62;57.19
43741;BME280;29352;48.708;9.290;2024-02-26T05:02:17;95942.78;;;4.04;56.33
43741;BME280;29352;48.708;9.290;2024-02-26T05:04:43;95949.38;;;3.95;56.20
43741;BME280;29352;48.708;9.290;2024-02-26T05:07:09;95941.63;;;3.45;56.49
43741;BME280;29352;48.708;9.290;2024-02-26T05:09:35;95930.13;;;3.58;56.05
43741;BME280;29352;48.708;9.290;2024-02-26T05:12:01;95933.63;;;3.70;55.85
43741;BME280;29352;48.708;9.290;2024-02-26T05:14:27;95929.59;;;3.49;55.75
43741;BME280;29352;48.708;9.290;2024-02-26T05:16:52;95950.09;;;2.47;58.37
43741;BME280;29352;48.708;9.290;2024-02-26T05:19:18;95938.25;;;3.13;56.73
43741;BME280;29352;48.708;9.290;2024-02-26T05:21:43;95939.50;;;3.91;55.53
43741;BME280;29352;48.708;9.290;2024-02-26T05:24:10;95943.00;;;3.85;55.61
43741;BME280;29352;48.708;9.290;2024-02-26T05:26:35;95933.19;;;3.73;56.15
43741;BME280;29352;48.708;9.290;2024-02-26T05:29:01;95938.91;;;3.70;57.14
43741;BME280;29352;48.708;9.290;2024-02-26T05:31:27;95938.00;;;3.40;58.06
43741;BME280;29352;48.708;9.290;2024-02-26T05:33:54;95940.88;;;3.38;58.45
43741;BME280;29352;48.708;9.290;2024-02-26T05:36:23;95951.44;;;3.56;57.55
43741;BME280;29352;48.708;9.290;2024-02-26T05:38:49;95955.38;;;4.02;57.09
43741;BME280;29352;48.708;9.290;2024-02-26T05:41:16;95972.53;;;3.56;58.99
43741;BME280;29352;48.708;9.290;2024-02-26T05:43:42;95976.22;;;3.74;58.53
43741;BME280;29352;48.708;9.290;2024-02-26T05:46:08;96001.22;;;3.21;60.02
43741;BME280;29352;48.708;9.290;2024-02-26T05:48:33;95998.97;;;3.00;61.07
43741;BME280;29352;48.708;9.290;2024-02-26T05:50:59;95994.03;;;3.35;59.86
43741;BME280;29352;48.708;9.290;2024-02-26T05:53:24;96007.94;;;3.17;60.85
43741;BME280;29352;48.708;9.290;2024-02-26T05:55:50;95998.28;;;2.48;62.56
43741;BME280;29352;48.708;9.290;2024-02-26T05:58:16;95990.53;;;2.84;62.90
43741;BME280;29352;48.708;9.290;2024-02-26T06:00:41;95992.06;;;2.67;62.98
43741;BME280;29352;48.708;9.290;2024-02-26T06:03:07;95986.31;;;2.83;62.22
43741;BME280;29352;48.708;9.290;2024-02-26T06:05:32;95984.72;;;3.32;62.22
43741;BME280;29352;48.708;9.290;2024-02-26T06:07:58;95989.41;;;2.99;62.48
43741;BME280;29352;48.708;9.290;2024-02-26T06:10:23;95991.41;;;2.78;62.61
43741;BME280;29352;48.708;9.290;2024-02-26T06:12:49;96001.72;;;2.48;63.35
43741;BME280;29352;48.708;9.290;2024-02-26T06:15:15;96010.31;;;2.69;63.02
43741;BME280;29352;48.708;9.290;2024-02-26T06:17:40;96008.28;;;3.02;60.77
43741;BME280;29352;48.708;9.290;2024-02-26T06:20:06;96011.09;;;3.32;60.32
43741;BME280;29352;48.708;9.290;2024-02-26T06:22:37;96013.66;;;3.14;61.47
43741;BME280;29352;48.708;9.290;2024-02-26T06:25:03;96010.50;;;2.99;61.62
43741;BME280;29352;48.708;9.290;2024-02-26T06:27:28;96016.78;;;2.28;63.04
43741;BME280;29352;48.708;9.290;2024-02-26T06:29:54;96013.34;;;2.72;62.25
43741;BME280;29352;48.708;9.290;2024-02-26T06:32:19;96010.94;;;2.64;62.41
43741;BME280;29352;48.708;9.290;2024-02-26T06:34:45;96008.56;;;2.88;62.37
43741;BME280;29352;48.708;9.290;2024-02-26T06:37:10;96010.41;;;3.12;60.89
43741;BME280;29352;48.708;9.290;2024-02-26T06:39:36;96022.69;;;3.00;61.50
43741;BME280;29352;48.708;9.290;2024-02-26T06:42:03;96022.09;;;3.23;60.96
43741;BME280;29352;48.708;9.290;2024-02-26T06:44:28;96030.81;;;3.23;61.91
43741;BME280;29352;48.708;9.290;2024-02-26T06:46:58;96038.91;;;2.97;62.55
43741;BME280;29352;48.708;9.290;2024-02-26T06:49:25;96033.75;;;3.08;61.69
43741;BME280;29352;48.708;9.290;2024-02-26T06:51:51;96044.00;;;2.92;62.02
43741;BME280;29352;48.708;9.290;2024-02-26T06:54:16;96044.19;;;2.97;61.01
43741;BME280;29352;48.708;9.290;2024-02-26T06:56:42;96058.66;;;2.43;61.77
43741;BME280;29352;48.708;9.290;2024-02-26T06:59:07;96064.56;;;2.38;63.28
43741;BME280;29352;48.708;9.290;2024-02-26T07:01:33;96067.81;;;2.78;62.38
43741;BME280;29352;48.708;9.290;2024-02-26T07:03:58;96071.38;;;3.22;61.29
43741;BME280;29352;48.708;9.290;2024-02-26T07:06:25;96076.91;;;2.82;60.69
43741;BME280;29352;48.708;9.290;2024-02-26T07:08:50;96077.44;;;3.29;61.18
43741;BME280;29352;48.708;9.290;2024-02-26T07:11:16;96087.22;;;3.16;61.35
43741;BME280;29352;48.708;9.290;2024-02-26T07:13:41;96083.69;;;3.60;59.99
43741;BME280;29352;48.708;9.290;2024-02-26T07:16:09;96083.25;;;3.88;59.66
43741;BME280;29352;48.708;9.290;2024-02-26T07:18:35;96072.91;;;3.87;58.28
43741;BME280;29352;48.708;9.290;2024-02-26T07:21:02;96070.41;;;3.92;59.12
43741;BME280;29352;48.708;9.290;2024-02-26T07:23:29;96081.13;;;3.97;58.97
43741;BME280;29352;48.708;9.290;2024-02-26T07:25:55;96089.69;;;3.92;60.42
43741;BME280;29352;48.708;9.290;2024-02-26T07:28:20;96083.84;;;3.90;60.77
43741;BME280;29352;48.708;9.290;2024-02-26T07:30:46;96088.75;;;4.05;58.93
43741;BME280;29352;48.708;9.290;2024-02-26T07:33:11;96083.34;;;4.18;59.20
43741;BME280;29352;48.708;9.290;2024-02-26T07:35:37;96092.69;;;4.21;59.83
43741;BME280;29352;48.708;9.290;2024-02-26T07:38:04;96088.75;;;4.05;60.39
43741;BME280;29352;48.708;9.290;2024-02-26T07:40:30;96104.47;;;4.00;60.89
43741;BME280;29352;48.708;9.290;2024-02-26T07:42:56;96091.84;;;4.02;59.87
43741;BME280;29352;48.708;9.290;2024-02-26T07:45:22;96094.50;;;4.39;59.72
43741;BME280;29352;48.708;9.290;2024-02-26T07:47:47;96108.94;;;3.74;61.24
43741;BME280;29352;48.708;9.290;2024-02-26T07:50:14;96095.38;;;4.33;60.57
43741;BME280;29352;48.708;9.290;2024-02-26T07:52:40;96103.56;;;4.06;61.45
43741;BME280;29352;48.708;9.290;2024-02-26T07:55:06;96114.94;;;3.63;62.17
43741;BME280;29352;48.708;9.290;2024-02-26T07:57:32;96098.22;;;4.13;61.57
43741;BME280;29352;48.708;9.290;2024-02-26T07:59:59;96096.78;;;4.17;62.42
43741;BME280;29352;48.708;9.290;2024-02-26T08:02:25;96111.78;;;3.98;62.95
43741;BME280;29352;48.708;9.290;2024-02-26T08:04:51;96114.25;;;4.55;60.56
43741;BME280;29352;48.708;9.290;2024-02-26T08:07:16;96116.22;;;4.41;59.03
43741;BME280;29352;48.708;9.290;2024-02-26T08:09:42;96126.28;;;3.64;62.62
43741;BME280;29352;48.708;9.290;2024-02-26T08:12:08;96108.53;;;4.21;60.73
43741;BME280;29352;48.708;9.290;2024-02-26T08:14:34;96119.72;;;3.48;60.20
43741;BME280;29352;48.708;9.290;2024-02-26T08:16:59;96113.00;;;3.95;60.67
43741;BME280;29352;48.708;9.290;2024-02-26T08:19:26;96108.59;;;4.51;58.59
43741;BME280;29352;48.708;9.290;2024-02-26T08:21:52;96099.16;;;4.92;57.46
43741;BME280;29352;48.708;9.290;2024-02-26T08:24:18;96107.59;;;4.52;57.61
43741;BME280;29352;48.708;9.290;2024-02-26T08:26:43;96107.09;;;3.50;59.98
43741;BME280;29352;48.708;9.290;2024-02-26T08:29:09;96097.59;;;4.72;58.11
43741;BME280;29352;48.708;9.290;2024-02-26T08:31:34;96088.91;;;4.84;56.94
43741;BME280;29352;48.708;9.290;2024-02-26T08:34:03;96092.59;;;4.83;56.53
43741;BME280;29352;48.708;9.290;2024-02-26T08:36:33;96089.22;;;4.57;56.94
43741;BME280;29352;48.708;9.290;2024-02-26T08:39:00;96094.75;;;5.04;55.67
43741;BME280;29352;48.708;9.290;2024-02-26T08:41:26;96094.94;;;5.03;56.01
43741;BME280;29352;48.708;9.290;2024-02-26T08:43:52;96097.69;;;4.96;55.84
43741;BME280;29352;48.708;9.290;2024-02-26T08:46:17;96101.78;;;5.10;55.64
43741;BME280;29352;48.708;9.290;2024-02-26T08:48:43;96099.22;;;5.57;54.44
43741;BME280;29352;48.708;9.290;2024-02-26T08:51:09;96102.97;;;5.26;54.91
43741;BME280;29352;48.708;9.290;2024-02-26T08:53:36;96102.63;;;5.34;55.17
43741;BME280;29352;48.708;9.290;2024-02-26T08:56:01;96097.94;;;5.06;55.53
43741;BME280;29352;48.708;9.290;2024-02-26T08:58:28;96099.44;;;5.02;55.69
43741;BME280;29352;48.708;9.290;2024-02-26T09:00:54;96085.59;;;5.84;54.14
43741;BME280;29352;48.708;9.290;2024-02-26T09:03:20;96086.91;;;5.51;54.29
43741;BME280;29352;48.708;9.290;2024-02-26T09:05:46;96094.22;;;5.14;55.36
43741;BME280;29352;48.708;9.290;2024-02-26T09:08:12;96088.28;;;5.42;55.45
43741;BME280;29352;48.708;9.290;2024-02-26T09:10:38;96092.84;;;5.23;54.99
43741;BME280;29352;48.708;9.290;2024-02-26T09:13:04;96090.66;;;5.74;54.70
43741;BME280;29352;48.708;9.290;2024-02-26T09:15:30;96090.53;;;5.68;55.39
43741;BME280;29352;48.708;9.290;2024-02-26T09:17:56;96089.50;;;5.93;53.99
43741;BME280;29352;48.708;9.290;2024-02-26T09:20:21;96092.38;;;6.27;53.00
43741;BME280;29352;48.708;9.290;2024-02-26T09:22:49;96083.28;;;6.23;53.45
43741;BME280;29352;48.708;9.290;2024-02-26T09:25:16;96087.44;;;6.07;54.57
43741;BME280;29352;48.708;9.290;2024-02-26T09:27:43;96089.03;;;5.96;55.01
43741;BME280;29352;48.708;9.290;2024-02-26T09:30:12;96095.69;;;6.46;52.82
43741;BME280;29352;48.708;9.290;2024-02-26T09:32:39;96118.63;;;5.28;55.59
43741;BME280;29352;48.708;9.290;2024-02-26T09:35:06;96110.78;;;4.91;56.52
43741;BME280;29352;48.708;9.290;2024-02-26T09:37:33;96110.91;;;6.03;53.93
43741;BME280;29352;48.708;9.290;2024-02-26T09:40:00;96110.00;;;5.98;54.28
43741;BME280;29352;48.708;9.290;2024-02-26T09:42:26;96096.53;;;6.23;53.44
43741;BME280;29352;48.708;9.290;2024-02-26T09:44:57;96103.19;;;6.49;52.79
43741;BME280;29352;48.708;9.290;2024-02-26T09:47:31;96103.31;;;5.72;54.18
43741;BME280;29352;48.708;9.290;2024-02-26T09:49:59;96113.00;;;6.13;54.07
43741;BME280;29352;48.708;9.290;2024-02-26T09:52:30;96123.91;;;5.93;53.28
43741;BME280;29352;48.708;9.290;2024-02-26T09:54:58;96116.66;;;6.00;54.31
43741;BME280;29352;48.708;9.290;2024-02-26T09:57:25;96115.25;;;6.45;53.48
43741;BME280;29352;48.708;9.290;2024-02-26T09:59:53;96119.31;;;6.00;54.37
43741;BME280;29352;48.708;9.290;2024-02-26T10:02:25;96121.81;;;7.06;53.53
43741;BME280;29352;48.708;9.290;2024-02-26T10:04:52;96122.69;;;6.83;52.13
43741;BME280;29352;48.708;9.290;2024-02-26T10:07:22;96124.53;;;6.94;52.21
43741;BME280;29352;48.708;9.290;2024-02-26T10:09:48;96125.38;;;7.11;51.67
43741;BME280;29352;48.708;9.290;2024-02-26T10:12:15;96122.06;;;7.04;50.27
43741;BME280;29352;48.708;9.290;2024-02-26T10:14:42;96130.88;;;7.39;50.62
43741;BME280;29352;48.708;9.290;2024-02-26T10:17:08;96130.16;;;6.98;51.64
43741;BME280;29352;48.708;9.290;2024-02-26T10:19:34;96139.53;;;7.63;50.33
43741;BME280;29352;48.708;9.290;2024-02-26T10:22:00;96140.28;;;7.75;49.82
43741;BME280;29352;48.708;9.290;2024-02-26T10:24:28;96138.75;;;8.13;49.00
43741;BME280;29352;48.708;9.290;2024-02-26T10:26:56;96150.72;;;7.65;49.39
43741;BME280;29352;48.708;9.290;2024-02-26T10:29:25;96142.75;;;7.19;51.21
43741;BME280;29352;48.708;9.290;2024-02-26T10:31:51;96142.31;;;7.85;49.17
43741;BME280;29352;48.708;9.290;2024-02-26T10:34:18;96139.50;;;8.47;48.32
43741;BME280;29352;48.708;9.290;2024-02-26T10:36:44;96124.50;;;8.19;48.51
43741;BME280;29352;48.708;9.290;2024-02-26T10:39:13;96115.84;;;8.67;47.87
43741;BME280;29352;48.708;9.290;2024-02-26T10:41:40;96113.47;;;9.15;47.51
43741;BME280;29352;48.708;9.290;2024-02-26T10:44:11;96114.69;;;9.02;46.81
43741;BME280;29352;48.708;9.290;2024-02-26T10:46:40;96114.91;;;9.00;47.49
43741;BME280;29352;48.708;9.290;2024-02-26T10:49:13;96121.84;;;8.58;47.36
43741;BME280;29352;48.708;9.290;2024-02-26T10:51:55;96134.53;;;7.49;49.84
43741;BME280;29352;48.708;9.290;2024-02-26T10:54:26;96140.94;;;8.54;48.26
43741;BME280;29352;48.708;9.290;2024-02-26T10:56:56;96128.09;;;8.68;48.07
43741;BME280;29352;48.708;9.290;2024-02-26T10:59:26;96127.38;;;8.56;48.58
43741;BME280;29352;48.708;9.290;2024-02-26T11:01:52;96135.25;;;8.85;48.92
43741;BME280;29352;48.708;9.290;2024-02-26T11:04:21;96131.19;;;9.26;47.13
43741;BME280;29352;48.708;9.290;2024-02-26T11:06:49;96122.69;;;8.41;48.50
43741;BME280;29352;48.708;9.290;2024-02-26T11:09:16;96130.94;;;9.60;46.72
43741;BME280;29352;48.708;9.290;2024-02-26T11:11:45;96132.31;;;9.35;46.69
43741;BME280;29352;48.708;9.290;2024-02-26T11:14:12;96130.81;;;8.73;47.19
43741;BME280;29352;48.708;9.290;2024-02-26T11:16:39;96131.13;;;9.75;46.03
43741;BME280;29352;48.708;9.290;2024-02-26T11:19:09;96124.22;;;9.79;45.83
43741;BME280;29352;48.708;9.290;2024-02-26T11:21:36;96131.00;;;9.38;46.18
43741;BME280;29352;48.708;9.290;2024-02-26T11:24:12;96129.47;;;9.69;46.34
43741;BME280;29352;48.708;9.290;2024-02-26T11:27:02;96125.88;;;9.31;46.66
43741;BME280;29352;48.708;9.290;2024-02-26T11:29:39;96119.06;;;9.13;46.93
43741;BME280;29352;48.708;9.290;2024-02-26T11:32:10;96125.44;;;9.66;45.64
43741;BME280;29352;48.708;9.290;2024-02-26T11:34:36;96126.63;;;10.18;45.04
43741;BME280;29352;48.708;9.290;2024-02-26T11:37:14;96131.78;;;9.92;46.03
43741;BME280;29352;48.708;9.290;2024-02-26T11:39:43;96136.69;;;9.74;45.53
43741;BME280;29352;48.708;9.290;2024-02-26T11:42:16;96137.94;;;10.83;43.97
43741;BME280;29352;48.708;9.290;2024-02-26T11:44:41;96135.03;;;10.89;42.83
43741;BME280;29352;48.708;9.290;2024-02-26T11:47:14;96145.03;;;9.82;44.91
43741;BME280;29352;48.708;9.290;2024-02-26T11:49:44;96132.38;;;10.42;44.64
43741;BME280;29352;48.708;9.290;2024-02-26T11:52:10;96137.44;;;10.43;44.90
43741;BME280;29352;48.708;9.290;2024-02-26T11:57:30;96125.75;;;10.07;46.30
43741;BME280;29352;48.708;9.290;2024-02-26T12:03:01;96125.03;;;10.54;45.54
43741;BME280;29352;48.708;9.290;2024-02-26T12:05:33;96133.69;;;10.39;45.57
43741;BME280;29352;48.708;9.290;2024-02-26T12:08:04;96128.03;;;10.68;43.94
43741;BME280;29352;48.708;9.290;2024-02-26T12:10:36;96131.34;;;11.06;43.60
43741;BME280;29352;48.708;9.290;2024-02-26T12:13:14;96124.53;;;11.35;43.01
43741;BME280;29352;48.708;9.290;2024-02-26T12:18:20;96142.75;;;11.69;42.87
43741;BME280;29352;48.708;9.290;2024-02-26T12:21:00;96141.41;;;11.62;42.35
43741;BME280;29352;48.708;9.290;2024-02-26T12:23:29;96145.91;;;11.41;42.90
43741;BME280;29352;48.708;9.290;2024-02-26T12:26:00;96146.38;;;11.32;43.07
43741;BME280;29352;48.708;9.290;2024-02-26T12:28:29;96143.16;;;11.20;43.64
43741;BME280;29352;48.708;9.290;2024-02-26T12:30:56;96146.84;;;11.04;42.96
43741;BME280;29352;48.708;9.290;2024-02-26T12:33:25;96152.09;;;11.87;41.97
43741;BME280;29352;48.708;9.290;2024-02-26T12:35:53;96148.56;;;11.46;42.27
43741;BME280;29352;48.708;9.290;2024-02-26T12:38:19;96145.94;;;11.71;42.51
43741;BME280;29352;48.708;9.290;2024-02-26T12:40:45;96150.91;;;10.59;44.17
43741;BME280;29352;48.708;9.290;2024-02-26T12:43:11;96149.03;;;11.22;42.47
43741;BME280;29352;48.708;9.290;2024-02-26T12:45:42;96143.78;;;11.48;42.23
43741;BME280;29352;48.708;9.290;2024-02-26T12:48:12;96147.00;;;11.60;42.32
43741;BME280;29352;48.708;9.290;2024-02-26T12:50:38;96160.63;;;12.09;41.27
43741;BME280;29352;48.708;9.290;2024-02-26T12:53:04;96145.28;;;11.18;42.95
43741;BME280;29352;48.708;9.290;2024-02-26T12:55:33;96162.19;;;9.97;44.07
43741;BME280;29352;48.708;9.290;2024-02-26T12:58:00;96158.25;;;10.04;43.98
43741;BME280;29352;48.708;9.290;2024-02-26T13:00:27;96155.19;;;11.33;42.83
43741;BME280;29352;48.708;9.290;2024-02-26T13:02:55;96154.84;;;11.04;43.14
43741;BME280;29352;48.708;9.290;2024-02-26T13:05:23;96164.63;;;11.71;42.01
43741;BME280;29352;48.708;9.290;2024-02-26T13:07:49;96151.84;;;11.83;41.97
43741;BME280;29352;48.708;9.290;2024-02-26T13:10:17;96166.25;;;11.88;42.08
43741;BME280;29352;48.708;9.290;2024-02-26T13:12:44;96162.31;;;10.12;43.74
43741;BME280;29352;48.708;9.290;2024-02-26T13:15:18;96160.38;;;11.65;43.00
43741;BME280;29352;48.708;9.290;2024-02-26T13:17:45;96158.97;;;11.47;42.96